createdAt,value
2018-02-24T06:22:07.686Z,53.83
2018-02-24T06:24:35.222Z,50.72
2018-02-24T06:27:02.742Z,46.58
2018-02-24T06:29:30.370Z,51.67
2018-02-24T06:31:57.906Z,46.20
2018-02-24T06:34:25.431Z,47.40
2018-02-24T06:36:53.759Z,56.25
2018-02-24T06:39:21.287Z,50.35
2018-02-24T06:41:50.326Z,47.17
2018-02-24T06:44:17.902Z,47.05
2018-02-24T06:46:46.640Z,46.85
2018-02-24T06:49:14.158Z,44.08
2018-02-24T06:51:41.659Z,47.60
2018-02-24T06:54:10.712Z,44.38
2018-02-24T06:56:38.202Z,46.85
2018-02-24T06:59:05.693Z,41.58
2018-02-24T07:01:34.168Z,42.78
2018-02-24T07:04:02.537Z,44.42
2018-02-24T07:06:30.116Z,45.22
2018-02-24T07:08:58.590Z,40.72
2018-02-24T07:11:26.121Z,43.17
2018-02-24T07:13:54.422Z,39.00
2018-02-24T07:16:21.917Z,41.53
2018-02-24T07:18:49.454Z,39.05
2018-02-24T07:21:17.546Z,38.53
2018-02-24T07:23:45.103Z,35.47
2018-02-24T07:26:12.709Z,42.00
2018-02-24T07:28:40.275Z,37.83
2018-02-24T07:31:07.833Z,37.10
2018-02-24T07:33:35.482Z,41.37
2018-02-24T07:36:03.798Z,41.35
2018-02-24T07:38:31.623Z,37.40
2018-02-24T07:40:59.225Z,42.03
2018-02-24T07:43:26.881Z,43.55
2018-02-24T07:45:54.483Z,42.80
2018-02-24T07:48:22.034Z,40.25
2018-02-24T07:50:50.020Z,41.22
2018-02-24T07:53:18.317Z,40.40
2018-02-24T07:55:46.004Z,40.10
2018-02-24T07:58:13.654Z,37.53
2018-02-24T08:00:41.170Z,39.40
2018-02-24T08:03:08.714Z,36.13
2018-02-24T08:05:36.227Z,37.88
2018-02-24T08:08:03.755Z,38.17
2018-02-24T08:10:32.127Z,38.22
2018-02-24T08:12:59.631Z,37.15
2018-02-24T08:15:27.159Z,37.78
2018-02-24T08:17:54.815Z,39.47
2018-02-24T08:20:22.372Z,37.10
2018-02-24T08:22:50.626Z,37.15
2018-02-24T08:25:19.127Z,30.80
2018-02-24T08:27:46.675Z,36.03
2018-02-24T08:30:14.977Z,33.22
2018-02-24T08:32:42.519Z,30.23
2018-02-24T08:35:10.912Z,31.70
2018-02-24T08:37:38.446Z,32.10
2018-02-24T08:40:05.965Z,31.00
2018-02-24T08:42:33.521Z,32.23
2018-02-24T08:45:01.020Z,32.37
2018-02-24T08:47:28.650Z,30.30
2018-02-24T08:49:56.362Z,33.57
2018-02-24T08:52:23.847Z,31.17
2018-02-24T08:54:51.902Z,31.17
2018-02-24T08:57:19.606Z,29.53
2018-02-24T08:59:47.128Z,32.07
2018-02-24T09:02:14.640Z,33.10
2018-02-24T09:04:42.154Z,30.30
2018-02-24T09:07:10.034Z,31.00
2018-02-24T09:09:37.557Z,30.03
2018-02-24T09:12:05.838Z,31.13
2018-02-24T09:14:34.112Z,32.77
2018-02-24T09:17:01.676Z,31.30
2018-02-24T09:19:29.195Z,34.17
2018-02-24T09:21:56.771Z,30.53
2018-02-24T09:24:24.459Z,29.23
2018-02-24T09:26:51.955Z,29.23
2018-02-24T09:29:19.871Z,30.77
2018-02-24T09:31:48.196Z,27.87
2018-02-24T09:34:15.817Z,27.70
2018-02-24T09:36:43.349Z,30.80
2018-02-24T09:39:11.988Z,30.47
2018-02-24T09:41:39.487Z,29.30
2018-02-24T09:44:07.031Z,28.73
2018-02-24T09:46:34.532Z,28.73
2018-02-24T09:49:02.088Z,27.90
2018-02-24T09:51:30.372Z,29.57
2018-02-24T09:53:57.951Z,28.67
2018-02-24T09:56:25.485Z,27.23
2018-02-24T09:58:52.988Z,30.73
2018-02-24T10:01:20.625Z,27.77
2018-02-24T10:03:48.137Z,30.23
2018-02-24T10:06:15.851Z,25.53
2018-02-24T10:08:43.645Z,28.07
2018-02-24T10:11:11.280Z,27.67
2018-02-24T10:13:39.003Z,25.50
2018-02-24T10:16:07.273Z,27.17
2018-02-24T10:18:35.911Z,26.27
2018-02-24T10:21:03.399Z,24.33
2018-02-24T10:23:30.966Z,24.50
2018-02-24T10:25:59.560Z,25.13
2018-02-24T10:28:27.820Z,23.40
2018-02-24T10:30:55.550Z,22.57
2018-02-24T10:33:23.051Z,22.33
2018-02-24T10:35:51.369Z,25.00
2018-02-24T10:38:18.929Z,21.80
2018-02-24T10:40:47.596Z,20.97
2018-02-24T10:43:15.166Z,20.40
2018-02-24T10:45:42.840Z,21.60
2018-02-24T10:48:10.367Z,25.93
2018-02-24T10:50:38.676Z,20.40
2018-02-24T10:53:06.931Z,21.37
2018-02-24T10:55:34.458Z,19.40
2018-02-24T10:58:02.060Z,20.83
2018-02-24T11:00:29.567Z,21.37
2018-02-24T11:02:57.088Z,24.83
2018-02-24T11:05:24.607Z,24.80
2018-02-24T11:07:52.867Z,20.33
2018-02-24T11:10:21.386Z,20.87
2018-02-24T11:12:48.890Z,21.07
2018-02-24T11:15:16.416Z,20.00
2018-02-24T11:17:44.724Z,20.50
2018-02-24T11:20:12.187Z,21.63
2018-02-24T11:22:39.692Z,18.70
2018-02-24T11:25:07.348Z,19.17
2018-02-24T11:27:34.867Z,22.63
2018-02-24T11:30:02.363Z,18.43
2018-02-24T11:32:29.897Z,20.57
2018-02-24T11:34:57.606Z,21.07
2018-02-24T11:37:25.131Z,20.57
2018-02-24T11:39:52.652Z,22.30
2018-02-24T11:42:20.139Z,23.90
2018-02-24T11:44:47.661Z,22.07
2018-02-24T11:47:15.370Z,21.83
2018-02-24T11:49:43.088Z,25.57
2018-02-24T11:52:10.602Z,20.17
2018-02-24T11:54:38.107Z,23.63
2018-02-24T11:57:05.836Z,22.17
2018-02-24T11:59:33.387Z,21.60
2018-02-24T12:02:01.041Z,23.08
2018-02-24T12:04:29.683Z,20.27
2018-02-24T12:06:57.237Z,25.88
2018-02-24T12:09:25.316Z,21.70
2018-02-24T12:11:52.884Z,20.58
2018-02-24T12:14:20.490Z,21.60
2018-02-24T12:16:47.996Z,24.15
2018-02-24T12:19:15.533Z,21.42
2018-02-24T12:21:43.032Z,20.27
2018-02-24T12:24:10.708Z,21.53
2018-02-24T12:26:38.962Z,21.57
2018-02-24T12:29:06.578Z,21.20
2018-02-24T12:31:34.141Z,20.40
2018-02-24T12:34:01.664Z,23.67
2018-02-24T12:36:29.183Z,21.50
2018-02-24T12:38:56.697Z,22.87
2018-02-24T12:41:24.220Z,25.37
2018-02-24T12:43:51.734Z,25.08
2018-02-24T12:46:19.266Z,24.15
2018-02-24T12:48:47.216Z,22.27
2018-02-24T12:51:14.732Z,24.37
2018-02-24T12:53:43.016Z,22.90
2018-02-24T12:56:11.357Z,22.13
2018-02-24T12:58:38.853Z,24.00
2018-02-24T13:01:06.349Z,22.00
2018-02-24T13:03:33.978Z,24.90
2018-02-24T13:06:01.486Z,22.40
2018-02-24T13:08:30.208Z,25.90
2018-02-24T13:10:57.928Z,24.83
2018-02-24T13:13:25.479Z,27.00
2018-02-24T13:15:53.166Z,22.03
2018-02-24T13:18:20.862Z,22.10
2018-02-24T13:20:48.512Z,23.70
2018-02-24T13:23:16.019Z,24.67
2018-02-24T13:25:43.543Z,23.47
2018-02-24T13:28:11.843Z,26.73
2018-02-24T14:04:35.646Z,23.10
2018-02-24T14:07:03.184Z,23.12
2018-02-24T14:09:30.792Z,21.97
2018-02-24T14:11:58.279Z,24.60
2018-02-24T14:14:25.808Z,24.27
2018-02-24T14:16:53.374Z,21.55
2018-02-24T14:19:20.880Z,21.15
2018-02-24T14:21:48.386Z,22.40
2018-02-24T14:24:15.902Z,23.87
2018-02-24T14:26:43.419Z,24.60
2018-02-24T14:29:10.916Z,25.83
2018-02-24T14:31:38.541Z,26.00
2018-02-24T14:34:06.043Z,23.27
2018-02-24T14:36:33.578Z,21.83
2018-02-24T14:39:01.085Z,23.73
2018-02-24T14:41:28.580Z,21.67
2018-02-24T14:43:56.093Z,22.75
2018-02-24T14:46:24.359Z,20.20
2018-02-24T14:48:53.565Z,20.02
2018-02-24T14:51:21.071Z,19.50
2018-02-24T14:53:48.609Z,18.92
2018-02-24T14:56:16.139Z,18.75
2018-02-24T14:58:43.669Z,18.95
2018-02-24T15:01:11.191Z,20.92
2018-02-24T15:03:38.697Z,18.95
2018-02-24T15:06:06.213Z,21.42
2018-02-24T15:08:33.715Z,18.02
2018-02-24T15:11:01.210Z,18.67
2018-02-24T15:13:28.743Z,19.00
2018-02-24T15:15:57.004Z,17.55
2018-02-24T15:18:24.619Z,16.02
2018-02-24T15:20:57.370Z,16.50
2018-02-24T15:23:25.335Z,18.77
2018-02-24T15:25:52.928Z,17.12
2018-02-24T15:28:20.453Z,17.15
2018-02-24T15:30:48.739Z,17.02
2018-02-24T15:33:17.609Z,16.62
2018-02-24T15:35:45.151Z,16.77
2018-02-24T15:38:13.581Z,17.62
2018-02-24T15:40:41.109Z,19.55
2018-02-24T15:43:08.679Z,17.35
2018-02-24T15:45:36.239Z,15.30
2018-02-24T15:48:04.622Z,17.48
2018-02-24T15:50:33.599Z,15.02
2018-02-24T15:53:01.467Z,15.43
2018-02-24T15:55:30.272Z,12.85
2018-02-24T15:57:57.820Z,13.18
2018-02-24T16:00:25.665Z,15.68
2018-02-24T16:02:53.213Z,13.00
2018-02-24T16:05:20.754Z,11.32
2018-02-24T16:07:49.295Z,12.88
2018-02-24T16:10:17.130Z,13.18
2018-02-24T16:12:44.647Z,11.65
2018-02-24T16:15:12.310Z,11.68
2018-02-24T16:17:40.075Z,12.07
2018-02-24T16:20:08.615Z,13.20
2018-02-24T16:22:36.183Z,14.18
2018-02-24T16:25:04.674Z,12.82
2018-02-24T16:27:32.313Z,13.30
2018-02-24T16:30:00.075Z,13.95
2018-02-24T16:32:28.518Z,12.82
2018-02-24T16:34:56.044Z,14.77
2018-02-24T16:37:23.554Z,12.65
2018-02-24T16:39:51.916Z,14.60
2018-02-24T16:42:20.176Z,17.20
2018-02-24T16:44:48.185Z,31.52
2018-02-24T16:47:15.701Z,23.52
2018-02-24T16:49:43.348Z,21.67
2018-02-24T16:52:11.500Z,23.02
2018-02-24T16:54:39.075Z,24.17
2018-02-24T16:57:06.603Z,24.63
2018-02-24T16:59:34.679Z,26.35
2018-02-24T17:02:02.220Z,27.83
2018-02-24T17:04:29.803Z,25.37
2018-02-24T17:06:58.317Z,26.98
2018-02-24T17:09:25.839Z,31.12
2018-02-24T17:11:53.396Z,27.67
2018-02-24T17:14:20.901Z,29.27
2018-02-24T17:16:48.443Z,29.55
2018-02-24T17:19:17.175Z,29.37
2018-02-24T17:21:44.876Z,26.83
2018-02-24T17:24:12.395Z,29.17
2018-02-24T17:26:39.932Z,29.87
2018-02-24T17:29:07.579Z,31.33
2018-02-24T17:31:35.116Z,28.25
2018-02-24T17:34:02.659Z,31.10
2018-02-24T17:36:30.907Z,34.40
2018-02-24T17:38:58.449Z,29.15
2018-02-24T17:41:25.979Z,30.95
2018-02-24T17:43:54.306Z,32.70
2018-02-24T17:46:21.822Z,31.58
2018-02-24T17:48:49.514Z,32.42
2018-02-24T17:51:17.136Z,29.33
2018-02-24T17:53:45.457Z,28.80
2018-02-24T17:56:13.002Z,31.58
2018-02-24T17:58:40.558Z,31.40
2018-02-24T18:01:08.096Z,33.22
2018-02-24T18:03:35.614Z,31.85
2018-02-24T18:06:03.180Z,32.25
2018-02-24T18:08:31.867Z,30.98
2018-02-24T18:10:59.383Z,32.22
2018-02-24T18:13:26.899Z,30.83
2018-02-24T18:15:54.411Z,33.47
2018-02-24T18:18:22.365Z,29.92
2018-02-24T18:20:49.878Z,30.90
2018-02-24T18:23:18.301Z,28.40
2018-02-24T18:25:45.823Z,30.50
2018-02-24T18:28:14.155Z,30.50
2018-02-24T18:30:41.706Z,28.98
2018-02-24T18:33:09.222Z,28.73
2018-02-24T18:35:36.772Z,28.30
2018-02-24T18:38:04.292Z,28.83
2018-02-24T18:40:32.081Z,27.08
2018-02-24T18:42:59.578Z,26.30
2018-02-24T18:45:27.161Z,24.10
2018-02-24T18:47:54.692Z,31.62
2018-02-24T18:50:22.956Z,25.37
2018-02-24T18:52:50.475Z,25.45
2018-02-24T18:55:18.007Z,27.50
2018-02-24T18:57:45.532Z,26.20
2018-02-24T19:00:13.818Z,26.27
2018-02-24T19:02:42.091Z,28.65
2018-02-24T19:05:09.626Z,27.73
2018-02-24T19:07:37.110Z,27.30
2018-02-24T19:10:04.629Z,30.15
2018-02-24T19:12:32.119Z,28.27
2018-02-24T19:15:00.574Z,29.45
2018-02-24T19:17:28.088Z,26.58
2018-02-24T19:19:55.644Z,26.73
2018-02-24T19:22:23.180Z,28.02
2018-02-24T19:24:50.699Z,26.95
2018-02-24T19:27:18.314Z,23.98
2018-02-24T19:29:46.072Z,28.92
2018-02-24T19:32:13.568Z,25.27
2018-02-24T19:34:41.096Z,26.05
2018-02-24T19:37:08.608Z,23.70
2018-02-24T19:39:36.165Z,25.85
2018-02-24T19:42:03.685Z,26.12
2018-02-24T19:44:31.189Z,28.08
2018-02-24T19:46:58.740Z,27.83
2018-02-24T19:49:26.233Z,23.48
2018-02-24T19:51:53.890Z,26.17
2018-02-24T19:54:22.154Z,23.35
2018-02-24T19:56:50.451Z,21.85
2018-02-24T19:59:17.965Z,22.65
2018-02-24T20:01:45.475Z,21.67
2018-02-24T20:04:13.006Z,21.95
2018-02-24T20:06:40.551Z,20.95
2018-02-24T20:09:08.082Z,20.83
2018-02-24T20:11:35.629Z,22.67
2018-02-24T20:14:03.276Z,20.70
2018-02-24T20:16:30.786Z,21.20
2018-02-24T20:18:58.352Z,21.60
2018-02-24T20:21:26.773Z,20.55
2018-02-24T20:23:54.269Z,18.58
2018-02-24T20:26:21.801Z,19.08
2018-02-24T20:28:49.309Z,19.75
2018-02-24T20:31:16.864Z,20.90
2018-02-24T20:33:45.272Z,19.42
2018-02-24T20:36:12.846Z,19.87
2018-02-24T20:38:40.347Z,20.40
2018-02-24T20:41:07.846Z,17.90
2018-02-24T20:43:35.396Z,17.25
2018-02-24T20:46:03.439Z,15.55
2018-02-24T20:48:31.539Z,13.80
2018-02-24T20:50:59.145Z,16.15
2018-02-24T20:53:28.088Z,15.10
2018-02-24T20:55:55.984Z,13.13
2018-02-24T20:58:23.550Z,13.60
2018-02-24T21:00:51.284Z,13.68
2018-02-24T21:03:19.473Z,15.68
2018-02-24T21:08:42.941Z,16.65
2018-02-24T21:11:13.589Z,14.35
2018-02-24T21:13:41.459Z,15.40
2018-02-24T21:16:12.761Z,13.90
2018-02-24T21:18:40.386Z,12.50
2018-02-24T21:21:15.050Z,13.62
2018-02-24T21:23:42.767Z,13.65
2018-02-24T21:26:19.176Z,14.65
2018-02-24T21:28:48.428Z,14.13
2018-02-24T21:31:15.953Z,12.98
2018-02-24T21:33:43.482Z,17.33
2018-02-24T21:36:11.039Z,14.73
2018-02-24T21:38:39.036Z,15.63
2018-02-24T21:41:06.629Z,15.88
2018-02-24T21:43:34.510Z,14.55
2018-02-24T21:46:02.587Z,14.48
2018-02-24T21:48:30.191Z,13.80
2018-02-24T21:50:58.845Z,17.33
2018-02-24T21:53:26.339Z,14.68
2018-02-24T21:55:55.003Z,15.52
2018-02-24T21:58:22.711Z,13.30
2018-02-24T22:00:50.229Z,12.07
2018-02-24T22:03:17.975Z,12.70
2018-02-24T22:05:45.720Z,10.95
2018-02-24T22:08:13.252Z,8.13
2018-02-24T22:10:41.698Z,10.30
2018-02-24T22:13:09.733Z,11.90
2018-02-24T22:15:37.308Z,10.18
2018-02-24T22:18:04.873Z,11.98
2018-02-24T22:20:32.408Z,11.45
2018-02-24T22:22:59.989Z,8.68
2018-02-24T22:25:27.588Z,10.70
2018-02-24T22:27:55.149Z,9.57
2018-02-24T22:30:23.442Z,10.02
2018-02-24T22:35:54.527Z,9.90
2018-02-24T22:38:22.043Z,8.98
2018-02-24T22:40:49.592Z,10.02
2018-02-24T22:43:17.943Z,13.40
2018-02-24T22:45:45.889Z,8.70
2018-02-24T22:48:19.109Z,8.98
2018-02-24T22:50:47.257Z,10.57
2018-02-24T22:53:14.813Z,9.75
2018-02-24T22:55:42.357Z,10.38
2018-02-24T22:58:09.983Z,11.45
2018-02-24T23:00:38.005Z,8.35
2018-02-24T23:03:07.223Z,9.70
2018-02-24T23:05:34.719Z,10.30
2018-02-24T23:08:02.231Z,9.50
2018-02-24T23:10:31.507Z,9.85
2018-02-24T23:12:59.182Z,12.63
2018-02-24T23:15:26.698Z,12.95
2018-02-24T23:17:54.258Z,13.20
2018-02-24T23:20:22.775Z,11.45
2018-02-24T23:22:50.309Z,10.95
2018-02-24T23:25:18.755Z,12.95
2018-02-24T23:27:47.024Z,9.77
2018-02-24T23:30:14.562Z,10.88
2018-02-24T23:32:42.087Z,11.77
2018-02-24T23:35:10.669Z,11.12
2018-02-24T23:37:38.862Z,12.00
2018-02-24T23:40:07.322Z,10.60
2018-02-24T23:42:34.837Z,11.55
2018-02-24T23:45:02.355Z,11.20
2018-02-24T23:47:29.967Z,11.57
2018-02-24T23:49:57.477Z,10.80
2018-02-24T23:52:24.996Z,12.52
2018-02-24T23:54:52.478Z,10.88
2018-02-24T23:57:20.067Z,13.80
2018-02-24T23:59:47.592Z,13.15
